Time;durP1;ratioP1;P1;durP2;ratioP2;P2;SDS_P1;SDS_P2;PMS_P1;PMS_P2;Temp;Humidity;BMP_temperature;BMP_pressure;BME280_temperature;BME280_humidity;BME280_pressure;Samples;Min_cycle;Max_cycle;Signal;HPM_P1;HPM_P2
2021/09/01 00:01:30;;;;;;;12.27;1.70;;;15.60;99.90;;;;;;4986657;28;20094;-80
2021/09/01 00:03:56;;;;;;;11.65;1.10;;;15.60;99.90;;;;;;4986672;28;20035;-80
2021/09/01 00:06:22;;;;;;;10.23;1.65;;;15.60;99.90;;;;;;4970622;28;20129;-80
2021/09/01 00:08:51;;;;;;;5.88;0.93;;;15.50;99.90;;;;;;4970307;28;20033;-80
2021/09/01 00:11:18;;;;;;;8.95;1.25;;;15.60;99.90;;;;;;4970196;28;20054;-80
2021/09/01 00:13:44;;;;;;;7.82;1.15;;;15.50;99.90;;;;;;4970296;28;20066;-80
2021/09/01 00:16:25;;;;;;;6.63;0.90;;;15.50;99.90;;;;;;4970171;28;20035;-80
2021/09/01 00:18:52;;;;;;;7.60;1.00;;;15.50;99.90;;;;;;4986348;28;20046;-80
2021/09/01 00:21:18;;;;;;;6.35;1.42;;;15.60;99.90;;;;;;4987533;28;20376;-80
2021/09/01 00:23:43;;;;;;;6.80;1.00;;;15.60;99.90;;;;;;4970220;28;20057;-80
2021/09/01 00:26:09;;;;;;;11.55;1.70;;;15.60;99.90;;;;;;4969973;28;20035;-80
2021/09/01 00:28:35;;;;;;;10.45;1.55;;;15.60;99.90;;;;;;4970023;28;20033;-80
2021/09/01 00:31:00;;;;;;;9.10;1.30;;;15.60;99.90;;;;;;4970100;28;20023;-80
2021/09/01 00:33:26;;;;;;;11.73;1.65;;;15.60;99.90;;;;;;4953957;28;20034;-81
2021/09/01 00:35:51;;;;;;;6.97;0.70;;;15.60;99.90;;;;;;4987350;28;20091;-80
2021/09/01 00:38:17;;;;;;;7.75;1.00;;;15.60;99.90;;;;;;4987243;28;20175;-80
2021/09/01 00:40:43;;;;;;;8.32;1.00;;;15.60;99.90;;;;;;4987146;28;20514;-80
2021/09/01 00:43:08;;;;;;;6.03;1.48;;;15.50;99.90;;;;;;4969699;28;20183;-80
2021/09/01 00:45:35;;;;;;;10.30;1.42;;;15.60;99.90;;;;;;4969936;28;20154;-80
2021/09/01 00:48:02;;;;;;;5.25;0.90;;;15.60;99.90;;;;;;4969339;28;20066;-80
2021/09/01 00:50:27;;;;;;;9.23;0.90;;;15.60;99.90;;;;;;4969528;28;20046;-80
2021/09/01 00:52:54;;;;;;;6.93;0.80;;;15.50;99.90;;;;;;4969524;28;20069;-80
2021/09/01 00:55:22;;;;;;;9.57;1.10;;;15.50;99.90;;;;;;4969621;28;20046;-80
2021/09/01 00:57:49;;;;;;;5.55;1.20;;;15.50;99.90;;;;;;4969311;28;20053;-80
2021/09/01 01:00:26;;;;;;;6.53;0.85;;;15.50;99.90;;;;;;4986767;28;20042;-81
2021/09/01 01:02:51;;;;;;;12.05;1.55;;;15.50;99.90;;;;;;4953310;28;20035;-80
2021/09/01 01:05:18;;;;;;;7.75;0.98;;;15.50;99.90;;;;;;4969551;28;20035;-80
2021/09/01 01:07:44;;;;;;;8.73;1.70;;;15.50;99.90;;;;;;4953110;28;20026;-80
2021/09/01 01:10:09;;;;;;;10.10;0.90;;;15.50;99.90;;;;;;4969288;28;20043;-80
2021/09/01 01:12:36;;;;;;;6.95;0.80;;;15.50;99.90;;;;;;4969239;28;20038;-80
2021/09/01 01:15:01;;;;;;;8.75;0.90;;;15.50;99.90;;;;;;4986713;28;20023;-80
2021/09/01 01:17:27;;;;;;;9.30;0.82;;;15.40;99.90;;;;;;4986377;28;20031;-80
2021/09/01 01:19:53;;;;;;;4.25;0.93;;;15.50;99.90;;;;;;4953101;28;20046;-80
2021/09/01 01:22:21;;;;;;;9.20;1.15;;;15.50;99.90;;;;;;4952942;28;20038;-80
2021/09/01 01:25:07;;;;;;;8.68;1.00;;;15.40;99.90;;;;;;4953154;28;20035;-80
2021/09/01 01:27:38;;;;;;;7.28;0.95;;;15.40;99.90;;;;;;4953061;28;20042;-80
2021/09/01 01:30:19;;;;;;;11.50;1.30;;;15.40;99.90;;;;;;4986344;28;20046;-81
2021/09/01 01:32:50;;;;;;;7.03;0.80;;;15.40;99.90;;;;;;4953015;28;20035;-80
2021/09/01 01:35:34;;;;;;;5.25;0.98;;;15.40;99.90;;;;;;4969994;28;20051;-80
2021/09/01 01:38:02;;;;;;;8.63;1.05;;;15.40;99.90;;;;;;4972907;28;20045;-81
2021/09/01 01:40:28;;;;;;;7.45;0.93;;;15.40;99.90;;;;;;4972897;28;20074;-80
2021/09/01 01:42:55;;;;;;;10.35;1.30;;;15.40;99.90;;;;;;4956899;28;20037;-80
2021/09/01 01:45:22;;;;;;;9.35;0.80;;;15.40;99.90;;;;;;4990202;28;20030;-80
2021/09/01 01:47:48;;;;;;;11.07;1.65;;;15.30;99.90;;;;;;4989534;28;20054;-81
2021/09/01 01:50:14;;;;;;;8.48;1.00;;;15.40;99.90;;;;;;4990352;28;20125;-80
2021/09/01 01:52:40;;;;;;;6.60;0.90;;;15.40;99.90;;;;;;4989842;28;20046;-81
2021/09/01 01:55:10;;;;;;;10.15;1.20;;;15.40;99.90;;;;;;4958134;28;20038;-80
2021/09/01 01:57:35;;;;;;;7.38;0.82;;;15.40;99.90;;;;;;4990144;28;20085;-80
2021/09/01 02:00:04;;;;;;;5.75;0.95;;;15.30;99.90;;;;;;4956391;28;20469;-81
2021/09/01 02:02:37;;;;;;;5.82;0.68;;;15.40;99.90;;;;;;4988858;28;20030;-81
2021/09/01 02:05:03;;;;;;;6.28;0.60;;;15.40;99.90;;;;;;4990008;28;20074;-81
2021/09/01 02:07:29;;;;;;;8.23;1.00;;;15.40;99.90;;;;;;4956598;28;20033;-81
2021/09/01 02:09:55;;;;;;;9.82;1.05;;;15.40;99.90;;;;;;4972408;28;20468;-81
2021/09/01 02:12:22;;;;;;;8.48;0.93;;;15.40;99.90;;;;;;4988472;28;20034;-81
2021/09/01 02:14:48;;;;;;;6.25;1.05;;;15.30;99.90;;;;;;4988583;28;20066;-80
2021/09/01 02:17:14;;;;;;;6.57;1.20;;;15.30;99.90;;;;;;4956171;28;20031;-81
2021/09/01 02:19:40;;;;;;;4.90;0.80;;;15.30;99.90;;;;;;4972250;28;20486;-80
2021/09/01 02:22:07;;;;;;;5.97;1.23;;;15.30;99.90;;;;;;4956173;28;20063;-81
2021/09/01 02:24:32;;;;;;;7.50;1.05;;;15.30;99.90;;;;;;4956212;28;20035;-80
2021/09/01 02:26:58;;;;;;;6.95;1.73;;;15.30;99.90;;;;;;4972264;28;20183;-81
2021/09/01 02:29:23;;;;;;;7.40;1.33;;;15.30;99.90;;;;;;4989347;28;20057;-80
2021/09/01 02:31:49;;;;;;;3.78;0.70;;;15.30;99.90;;;;;;4972118;28;20054;-80
2021/09/01 02:34:15;;;;;;;7.13;1.08;;;15.30;99.90;;;;;;4955969;28;20033;-81
2021/09/01 02:36:41;;;;;;;5.40;0.80;;;15.30;99.90;;;;;;4972193;28;20368;-80
2021/09/01 02:39:06;;;;;;;5.60;0.90;;;15.30;99.90;;;;;;4955723;28;20054;-81
2021/09/01 02:41:32;;;;;;;7.18;1.60;;;15.30;99.90;;;;;;4955870;28;20035;-80
2021/09/01 02:43:58;;;;;;;5.88;0.82;;;15.30;99.90;;;;;;4971922;28;20031;-81
2021/09/01 02:46:23;;;;;;;10.00;1.80;;;15.30;99.90;;;;;;4970948;28;20073;-80
2021/09/01 02:48:49;;;;;;;6.80;0.98;;;15.30;99.90;;;;;;4967866;28;20113;-81
2021/09/01 02:51:15;;;;;;;7.55;0.88;;;15.30;99.90;;;;;;4968577;29;20031;-81
2021/09/01 02:53:41;;;;;;;7.97;0.90;;;15.30;99.90;;;;;;4968189;29;20046;-80
2021/09/01 02:56:07;;;;;;;9.35;1.13;;;15.30;99.90;;;;;;4968566;28;20035;-81
2021/09/01 02:58:33;;;;;;;7.07;1.63;;;15.20;99.90;;;;;;4968245;28;20035;-80
2021/09/01 03:00:59;;;;;;;5.78;1.02;;;15.30;99.90;;;;;;4968251;29;20043;-80
2021/09/01 03:03:25;;;;;;;7.13;1.20;;;15.30;99.90;;;;;;4968154;29;20058;-80
2021/09/01 03:05:50;;;;;;;5.43;1.05;;;15.20;99.90;;;;;;4968444;28;20035;-80
2021/09/01 03:08:16;;;;;;;12.07;1.83;;;15.20;99.90;;;;;;4968258;28;20066;-81
2021/09/01 03:10:42;;;;;;;5.15;1.35;;;15.20;99.90;;;;;;4968599;28;20035;-81
2021/09/01 03:13:07;;;;;;;5.70;1.35;;;15.20;99.90;;;;;;4969645;29;20059;-80
2021/09/01 03:15:33;;;;;;;7.57;1.35;;;15.20;99.90;;;;;;4968269;28;20411;-81
2021/09/01 03:17:59;;;;;;;8.98;1.73;;;15.20;99.90;;;;;;4979523;28;20035;-80
2021/09/01 03:20:43;;;;;;;8.35;1.55;;;15.30;99.90;;;;;;4971072;28;20074;-81
2021/09/01 03:23:09;;;;;;;3.97;0.75;;;15.30;99.90;;;;;;4971678;28;20031;-80
2021/09/01 03:25:35;;;;;;;3.80;0.73;;;15.20;99.90;;;;;;4955258;28;20034;-79
2021/09/01 03:28:00;;;;;;;6.00;0.95;;;15.20;99.90;;;;;;4955275;28;20488;-80
2021/09/01 03:30:27;;;;;;;7.07;1.17;;;15.20;99.90;;;;;;4988407;28;20037;-79
2021/09/01 03:32:53;;;;;;;4.55;0.93;;;15.20;99.90;;;;;;4988610;28;20045;-80
2021/09/01 03:35:18;;;;;;;4.70;0.90;;;15.20;99.90;;;;;;4971189;28;20034;-79
2021/09/01 03:37:44;;;;;;;9.13;1.08;;;15.20;99.90;;;;;;4956071;28;20042;-80
2021/09/01 03:40:10;;;;;;;3.00;0.77;;;15.20;99.90;;;;;;4971018;28;20077;-80
2021/09/01 03:42:36;;;;;;;6.00;1.00;;;15.20;99.90;;;;;;4971225;28;20117;-80
2021/09/01 03:45:02;;;;;;;5.32;1.00;;;15.20;99.90;;;;;;4970823;28;20475;-81
2021/09/01 03:47:28;;;;;;;6.45;0.70;;;15.30;99.90;;;;;;4970408;28;20077;-80
2021/09/01 03:49:53;;;;;;;6.28;0.88;;;15.20;99.90;;;;;;4967208;29;20047;-80
2021/09/01 03:52:19;;;;;;;5.60;0.70;;;15.20;99.90;;;;;;4968722;29;20027;-81
2021/09/01 03:54:45;;;;;;;4.90;0.88;;;15.20;99.90;;;;;;4935542;29;20039;-80
2021/09/01 03:57:11;;;;;;;6.30;0.70;;;15.20;99.90;;;;;;4968783;29;20108;-80
2021/09/01 03:59:36;;;;;;;3.30;0.70;;;15.20;99.90;;;;;;4967016;28;20042;-80
2021/09/01 04:02:02;;;;;;;3.65;0.70;;;15.20;99.90;;;;;;4967332;29;20035;-80
2021/09/01 04:04:28;;;;;;;6.93;0.73;;;15.20;99.90;;;;;;4951408;29;20038;-80
2021/09/01 04:06:53;;;;;;;9.07;1.08;;;15.10;99.90;;;;;;4935616;29;20062;-80
2021/09/01 04:09:19;;;;;;;4.82;1.20;;;15.20;99.90;;;;;;4967208;29;20491;-80
2021/09/01 04:11:45;;;;;;;5.72;1.02;;;15.20;99.90;;;;;;4967034;29;20046;-80
2021/09/01 04:14:10;;;;;;;3.13;0.60;;;15.20;99.90;;;;;;4968408;29;20042;-80
2021/09/01 04:16:36;;;;;;;2.70;0.60;;;15.20;99.90;;;;;;4967845;28;20035;-80
2021/09/01 04:19:02;;;;;;;6.05;0.85;;;15.10;99.90;;;;;;4954176;28;20049;-80
2021/09/01 04:21:28;;;;;;;5.82;0.85;;;15.10;99.90;;;;;;4970225;28;20030;-79
2021/09/01 04:23:53;;;;;;;4.68;0.90;;;15.20;99.90;;;;;;4954117;28;20031;-80
2021/09/01 04:26:19;;;;;;;6.68;1.48;;;15.20;99.90;;;;;;4969823;28;20133;-80
2021/09/01 04:28:45;;;;;;;4.57;0.90;;;15.10;99.90;;;;;;4970019;28;20039;-80
2021/09/01 04:31:10;;;;;;;5.53;1.10;;;15.10;99.90;;;;;;4969341;28;20030;-80
2021/09/01 04:33:36;;;;;;;4.90;0.77;;;15.10;99.90;;;;;;4969357;28;20041;-80
2021/09/01 04:36:02;;;;;;;9.50;1.88;;;15.10;99.90;;;;;;4982922;28;20031;-80
2021/09/01 04:38:28;;;;;;;4.90;1.00;;;15.10;99.90;;;;;;4987115;28;20031;-80
2021/09/01 04:40:53;;;;;;;5.80;1.00;;;15.10;99.90;;;;;;4969729;28;20039;-80
2021/09/01 04:43:19;;;;;;;3.92;0.70;;;15.20;99.90;;;;;;4969846;28;20031;-80
2021/09/01 04:45:44;;;;;;;5.25;1.40;;;15.10;99.90;;;;;;4969426;28;20050;-80
2021/09/01 04:48:10;;;;;;;5.18;1.08;;;15.10;99.90;;;;;;4952894;28;20031;-80
2021/09/01 04:50:36;;;;;;;5.78;1.42;;;15.10;99.90;;;;;;4985908;28;20090;-82
2021/09/01 04:53:01;;;;;;;8.02;1.25;;;15.10;99.90;;;;;;4969821;28;20031;-81
2021/09/01 04:55:27;;;;;;;6.75;0.80;;;15.10;99.90;;;;;;4969614;28;20037;-82
2021/09/01 04:57:53;;;;;;;5.78;1.00;;;15.10;99.90;;;;;;4969628;28;20031;-82
2021/09/01 05:00:18;;;;;;;8.18;1.05;;;15.10;99.90;;;;;;4969536;28;20126;-81
2021/09/01 05:05:21;;;;;;;4.75;1.05;;;15.10;99.90;;;;;;4989003;23;20049;-83
2021/09/01 05:07:47;;;;;;;5.47;1.10;;;15.10;99.90;;;;;;4969795;28;20030;-81
2021/09/01 05:10:13;;;;;;;4.57;1.27;;;15.10;99.90;;;;;;4953218;28;20045;-82
2021/09/01 05:12:39;;;;;;;3.30;0.93;;;15.10;99.90;;;;;;4969829;28;20452;-82
2021/09/01 05:15:05;;;;;;;5.95;1.00;;;15.20;99.90;;;;;;4953498;28;20035;-81
2021/09/01 05:17:30;;;;;;;3.28;0.80;;;15.10;99.90;;;;;;4983652;28;20031;-82
2021/09/01 05:19:56;;;;;;;5.50;1.00;;;15.10;99.90;;;;;;4968612;28;20121;-81
2021/09/01 05:22:24;;;;;;;4.50;1.20;;;15.10;99.90;;;;;;4969424;28;20498;-81
2021/09/01 05:25:04;;;;;;;2.75;1.00;;;15.10;99.90;;;;;;4969158;28;20034;-81
2021/09/01 05:27:34;;;;;;;;;;;15.10;99.90;;;;;;4969710;28;20042;-81
2021/09/01 05:30:03;;;;;;;6.95;1.45;;;15.10;99.90;;;;;;4969158;28;19910;-81
2021/09/01 05:32:30;;;;;;;5.53;0.80;;;15.10;99.90;;;;;;4968237;28;20057;-81
2021/09/01 05:34:59;;;;;;;3.38;0.85;;;15.00;99.90;;;;;;4968218;28;20035;-81
2021/09/01 05:37:25;;;;;;;5.50;1.20;;;15.10;99.90;;;;;;4952360;28;20037;-81
2021/09/01 05:39:55;;;;;;;5.63;0.90;;;15.00;99.90;;;;;;4985836;28;20098;-82
2021/09/01 05:42:24;;;;;;;6.33;2.30;;;15.10;99.90;;;;;;4985793;28;20038;-82
2021/09/01 05:44:51;;;;;;;4.95;1.23;;;15.10;99.90;;;;;;4968550;28;20039;-81
2021/09/01 05:47:18;;;;;;;3.95;1.10;;;15.10;99.90;;;;;;4951778;28;20023;-82
2021/09/01 05:49:45;;;;;;;4.88;1.20;;;15.20;99.90;;;;;;4967649;28;20114;-83
2021/09/01 05:52:12;;;;;;;6.13;1.70;;;15.20;99.90;;;;;;4944041;28;20035;-82
2021/09/01 05:54:42;;;;;;;6.03;0.88;;;15.20;99.90;;;;;;4943923;28;20074;-83
2021/09/01 05:57:14;;;;;;;6.32;1.10;;;15.20;99.90;;;;;;4967778;28;20031;-82
2021/09/01 05:59:53;;;;;;;4.35;1.00;;;15.20;99.90;;;;;;4951730;28;20038;-82
2021/09/01 06:02:21;;;;;;;7.43;1.20;;;15.20;99.90;;;;;;4967982;28;20110;-82
2021/09/01 06:04:48;;;;;;;2.83;0.65;;;15.20;99.90;;;;;;4951976;28;20125;-82
2021/09/01 06:07:16;;;;;;;4.47;0.90;;;15.20;99.90;;;;;;4952113;28;20043;-82
2021/09/01 06:09:44;;;;;;;4.25;0.70;;;15.20;99.90;;;;;;4968326;28;20130;-84
2021/09/01 06:12:18;;;;;;;5.97;0.70;;;15.30;99.90;;;;;;4985663;28;20125;-84
2021/09/01 06:14:44;;;;;;;5.75;0.80;;;15.30;99.90;;;;;;4952572;28;20038;-84
2021/09/01 06:17:10;;;;;;;6.78;0.80;;;15.30;99.90;;;;;;4978226;28;20035;-82
2021/09/01 06:19:36;;;;;;;4.07;1.23;;;15.30;99.90;;;;;;4965725;29;20368;-83
2021/09/01 06:22:03;;;;;;;4.72;0.93;;;15.30;99.90;;;;;;4950527;29;20039;-82
2021/09/01 06:24:30;;;;;;;5.30;1.40;;;15.30;99.90;;;;;;4936615;29;20094;-82
2021/09/01 06:26:56;;;;;;;9.65;1.30;;;15.30;99.90;;;;;;4952516;29;20118;-82
2021/09/01 06:29:21;;;;;;;3.67;0.88;;;15.30;99.90;;;;;;4952384;29;20551;-82
2021/09/01 06:31:47;;;;;;;6.93;0.80;;;15.30;99.90;;;;;;4952125;29;20031;-82
2021/09/01 06:34:12;;;;;;;8.02;0.90;;;15.30;99.90;;;;;;4952470;29;20122;-81
2021/09/01 06:36:38;;;;;;;5.72;0.85;;;15.30;99.90;;;;;;4952008;29;20031;-81
2021/09/01 06:39:04;;;;;;;6.57;1.10;;;15.30;99.90;;;;;;4952191;29;20050;-82
2021/09/01 06:41:29;;;;;;;5.68;0.90;;;15.40;99.90;;;;;;4952033;29;20517;-82
2021/09/01 06:43:55;;;;;;;2.90;0.70;;;15.40;99.90;;;;;;4952024;29;20581;-81
2021/09/01 06:46:20;;;;;;;5.03;1.63;;;15.40;99.90;;;;;;4969138;28;20035;-81
2021/09/01 06:48:46;;;;;;;6.00;0.80;;;15.40;99.90;;;;;;4960372;28;20035;-83
2021/09/01 06:51:12;;;;;;;5.75;1.00;;;15.40;99.90;;;;;;4971142;28;20054;-82
2021/09/01 06:53:38;;;;;;;6.88;0.95;;;15.50;99.90;;;;;;4971301;28;20057;-82
2021/09/01 06:56:03;;;;;;;5.93;0.75;;;15.50;99.90;;;;;;4955320;28;20201;-82
2021/09/01 06:58:29;;;;;;;5.97;1.00;;;15.50;99.90;;;;;;4955160;28;20035;-82
2021/09/01 07:00:54;;;;;;;4.60;1.20;;;15.50;99.90;;;;;;4955136;28;20049;-82
2021/09/01 07:03:20;;;;;;;6.47;1.02;;;15.50;99.90;;;;;;4955059;28;20035;-82
2021/09/01 07:05:46;;;;;;;6.95;1.10;;;15.50;99.90;;;;;;4954850;28;20055;-82
2021/09/01 07:08:16;;;;;;;3.72;0.98;;;15.50;99.90;;;;;;4955094;28;20035;-82
2021/09/01 07:10:44;;;;;;;3.80;0.70;;;15.60;99.90;;;;;;4971178;28;20035;-82
2021/09/01 07:13:10;;;;;;;2.85;0.85;;;15.60;99.90;;;;;;4970767;28;20030;-81
2021/09/01 07:15:35;;;;;;;5.18;0.90;;;15.60;99.90;;;;;;4970919;28;20070;-82
2021/09/01 07:18:01;;;;;;;6.82;0.98;;;15.50;99.90;;;;;;4958279;29;20038;-83
2021/09/01 07:20:27;;;;;;;6.30;1.10;;;15.50;99.90;;;;;;4935687;29;20075;-82
2021/09/01 07:22:52;;;;;;;7.30;0.90;;;15.60;99.90;;;;;;4951453;29;20376;-84
2021/09/01 07:25:18;;;;;;;5.10;0.75;;;15.70;99.90;;;;;;4935719;29;20031;-82
2021/09/01 07:27:43;;;;;;;5.75;0.90;;;15.70;99.90;;;;;;4951524;29;20038;-82
2021/09/01 07:30:09;;;;;;;4.40;1.00;;;15.80;99.90;;;;;;4951425;29;20531;-82
2021/09/01 07:32:35;;;;;;;6.13;1.35;;;15.80;99.90;;;;;;4935124;28;20090;-83
2021/09/01 07:35:02;;;;;;;6.60;1.25;;;15.80;99.90;;;;;;4951015;29;20027;-81
2021/09/01 07:37:27;;;;;;;8.68;1.52;;;15.80;99.90;;;;;;4951367;29;20035;-83
2021/09/01 07:39:53;;;;;;;6.55;1.33;;;15.80;99.90;;;;;;4968663;28;20057;-82
2021/09/01 07:42:19;;;;;;;8.77;1.13;;;15.80;99.90;;;;;;4936123;29;20031;-82
2021/09/01 07:44:45;;;;;;;7.93;1.58;;;15.80;99.90;;;;;;4951085;29;20035;-82
2021/09/01 07:47:11;;;;;;;4.03;0.98;;;15.90;99.90;;;;;;4950888;29;20024;-81
2021/09/01 07:49:36;;;;;;;4.68;0.68;;;15.90;99.90;;;;;;4950878;29;20030;-82
2021/09/01 07:52:02;;;;;;;6.40;1.25;;;15.90;99.90;;;;;;4950708;29;20070;-82
2021/09/01 07:54:28;;;;;;;8.35;0.98;;;15.90;99.90;;;;;;4968103;28;20054;-82
2021/09/01 07:56:54;;;;;;;4.15;0.85;;;15.90;99.90;;;;;;4950887;29;20103;-82
2021/09/01 07:59:19;;;;;;;6.53;0.80;;;16.00;99.90;;;;;;4967826;29;20027;-81
2021/09/01 08:01:45;;;;;;;4.30;1.08;;;15.90;99.90;;;;;;4950549;29;20119;-82
2021/09/01 08:04:11;;;;;;;9.27;1.17;;;15.90;99.90;;;;;;4947243;29;20111;-82
2021/09/01 08:06:37;;;;;;;5.55;0.90;;;16.00;99.90;;;;;;4931555;29;20079;-81
2021/09/01 08:09:02;;;;;;;7.88;0.93;;;15.90;99.90;;;;;;4931316;29;20396;-82
2021/09/01 08:11:29;;;;;;;6.05;0.82;;;16.00;99.90;;;;;;4947276;29;20032;-81
2021/09/01 08:13:55;;;;;;;4.07;0.75;;;16.00;99.90;;;;;;4931285;29;20188;-82
2021/09/01 08:16:21;;;;;;;6.50;0.85;;;16.00;99.90;;;;;;4947072;29;20032;-82
2021/09/01 08:18:46;;;;;;;5.95;1.20;;;16.00;99.90;;;;;;4945961;29;20039;-82
2021/09/01 08:21:12;;;;;;;4.05;0.70;;;16.10;99.90;;;;;;4963060;29;20115;-82
2021/09/01 08:23:38;;;;;;;8.82;1.13;;;16.10;99.90;;;;;;4946882;29;20032;-82
2021/09/01 08:26:03;;;;;;;6.03;0.80;;;16.10;99.90;;;;;;4963072;29;20039;-81
2021/09/01 08:28:29;;;;;;;3.63;0.60;;;16.20;99.90;;;;;;4947028;29;20063;-81
2021/09/01 08:30:55;;;;;;;2.65;0.60;;;16.40;99.90;;;;;;4947100;29;20036;-83
2021/09/01 08:33:21;;;;;;;5.07;0.60;;;16.60;99.90;;;;;;4962836;29;20042;-82
2021/09/01 08:35:46;;;;;;;4.60;0.60;;;16.70;99.90;;;;;;4946876;29;20072;-82
2021/09/01 08:38:12;;;;;;;3.78;0.65;;;16.70;99.90;;;;;;4946834;29;20038;-82
2021/09/01 08:40:38;;;;;;;3.10;0.80;;;16.70;99.90;;;;;;4946634;29;20054;-81
2021/09/01 08:43:05;;;;;;;5.13;0.75;;;16.80;99.90;;;;;;4946843;29;20167;-83
2021/09/01 08:45:31;;;;;;;3.22;0.55;;;17.00;99.90;;;;;;4945688;29;20488;-82
2021/09/01 08:47:57;;;;;;;6.05;0.60;;;17.00;99.90;;;;;;4948279;29;20056;-83
2021/09/01 08:50:27;;;;;;;5.32;0.60;;;16.90;99.90;;;;;;4982004;28;20027;-82
2021/09/01 08:52:53;;;;;;;6.40;0.68;;;16.80;99.90;;;;;;4966970;28;20027;-83
2021/09/01 08:55:19;;;;;;;7.15;0.90;;;16.90;99.90;;;;;;4981985;28;20035;-82
2021/09/01 08:57:45;;;;;;;2.40;0.60;;;17.20;99.90;;;;;;4965743;29;20480;-82
2021/09/01 09:00:11;;;;;;;3.45;0.55;;;17.10;99.90;;;;;;4965615;29;20090;-82
2021/09/01 09:02:37;;;;;;;4.80;0.70;;;17.30;99.90;;;;;;4966891;29;20031;-82
2021/09/01 09:05:08;;;;;;;5.65;0.50;;;17.20;99.90;;;;;;4981571;28;20446;-82
2021/09/01 09:07:53;;;;;;;5.10;0.50;;;17.40;99.90;;;;;;4965598;29;20106;-83
2021/09/01 09:10:30;;;;;;;4.03;0.75;;;17.50;99.90;;;;;;4965554;29;20058;-82
2021/09/01 09:12:58;;;;;;;4.43;0.90;;;17.40;99.90;;;;;;4965479;29;20027;-82
2021/09/01 09:15:23;;;;;;;3.70;0.68;;;17.20;99.90;;;;;;4981763;28;20031;-82
2021/09/01 09:17:49;;;;;;;4.35;0.60;;;17.20;99.90;;;;;;4972717;28;20027;-83
2021/09/01 09:20:14;;;;;;;2.72;0.50;;;17.30;99.90;;;;;;4981382;28;20078;-82
2021/09/01 09:22:41;;;;;;;7.53;0.80;;;17.40;99.90;;;;;;4949557;29;20031;-81
2021/09/01 09:25:14;;;;;;;3.50;0.63;;;17.10;99.90;;;;;;4965356;29;20031;-82
2021/09/01 09:27:50;;;;;;;5.18;0.85;;;17.50;99.90;;;;;;4949567;29;20098;-81
2021/09/01 09:30:36;;;;;;;4.25;0.63;;;17.80;99.90;;;;;;4966788;29;20027;-82
2021/09/01 09:33:11;;;;;;;5.75;0.60;;;17.70;99.90;;;;;;4949203;29;20028;-81
2021/09/01 09:36:02;;;;;;;3.72;0.55;;;17.70;99.90;;;;;;4965509;29;20220;-81
2021/09/01 09:38:45;;;;;;;3.28;0.77;;;17.80;99.90;;;;;;4981435;28;20035;-82
2021/09/01 09:41:22;;;;;;;4.50;0.73;;;17.80;99.90;;;;;;4965039;29;20118;-81
2021/09/01 09:43:49;;;;;;;3.65;0.60;;;17.70;99.90;;;;;;4965249;29;20066;-81
2021/09/01 09:46:15;;;;;;;4.70;0.75;;;17.80;99.90;;;;;;4966413;28;20103;-81
2021/09/01 09:48:42;;;;;;;5.20;0.60;;;17.90;99.90;;;;;;4962019;29;20031;-81
2021/09/01 09:51:10;;;;;;;4.53;0.85;;;18.20;99.90;;;;;;4962109;29;20118;-81
2021/09/01 09:53:37;;;;;;;6.22;1.05;;;17.80;99.90;;;;;;4946148;29;20031;-80
2021/09/01 09:56:09;;;;;;;4.55;0.70;;;17.90;99.90;;;;;;4946291;29;20150;-82
2021/09/01 09:58:38;;;;;;;5.97;0.80;;;18.10;99.90;;;;;;4949826;29;20099;-82
2021/09/01 10:01:05;;;;;;;;;;;18.10;99.90;;;;;;4966050;29;20523;-81
2021/09/01 10:03:31;;;;;;;4.85;0.70;;;18.20;99.90;;;;;;4949980;29;19917;-82
2021/09/01 10:06:00;;;;;;;6.03;0.60;;;18.30;99.90;;;;;;4965498;29;20055;-82
2021/09/01 10:08:26;;;;;;;5.93;1.00;;;18.70;99.90;;;;;;4965613;29;20491;-82
2021/09/01 10:10:53;;;;;;;3.17;0.70;;;18.50;99.90;;;;;;4949270;29;20040;-83
2021/09/01 10:13:20;;;;;;;4.20;0.65;;;18.50;99.90;;;;;;4950995;29;20031;-82
2021/09/01 10:15:47;;;;;;;5.18;0.65;;;18.30;99.90;;;;;;4951105;29;20353;-83
2021/09/01 10:18:14;;;;;;;5.57;0.77;;;18.20;99.90;;;;;;4952475;29;20491;-82
2021/09/01 10:20:42;;;;;;;4.07;0.80;;;18.10;99.90;;;;;;4968565;29;20047;-82
2021/09/01 10:23:09;;;;;;;5.25;0.98;;;18.10;99.90;;;;;;4969778;29;20046;-80
2021/09/01 10:25:45;;;;;;;6.55;0.70;;;18.00;99.90;;;;;;4952236;29;20515;-82
2021/09/01 10:28:22;;;;;;;6.15;0.95;;;18.10;99.90;;;;;;4969678;29;20110;-81
2021/09/01 10:31:18;;;;;;;5.78;0.90;;;18.00;99.90;;;;;;4969604;29;20039;-82
2021/09/01 10:33:51;;;;;;;5.15;0.88;;;18.30;99.90;;;;;;4968608;29;20028;-80
2021/09/01 10:36:23;;;;;;;8.13;1.00;;;18.10;99.90;;;;;;4969617;29;20046;-81
2021/09/01 10:39:07;;;;;;;7.72;0.90;;;18.10;99.90;;;;;;4968230;29;20035;-81
2021/09/01 10:41:33;;;;;;;6.72;1.02;;;18.20;99.90;;;;;;4951825;29;20184;-82
2021/09/01 10:44:18;;;;;;;7.38;2.05;;;18.50;99.90;;;;;;4968277;29;20390;-81
2021/09/01 10:47:04;;;;;;;4.10;0.77;;;18.80;99.90;;;;;;4968010;28;20039;-82
2021/09/01 10:49:56;;;;;;;8.70;1.35;;;18.40;99.90;;;;;;4928448;29;20512;-82
2021/09/01 10:52:22;;;;;;;5.00;0.73;;;18.40;99.90;;;;;;4928579;29;20084;-82
2021/09/01 10:54:49;;;;;;;4.35;0.95;;;18.50;99.90;;;;;;4897067;29;20226;-82
2021/09/01 10:57:23;;;;;;;5.35;0.95;;;18.40;99.90;;;;;;4912637;29;20043;-82
2021/09/01 10:59:49;;;;;;;7.25;1.17;;;18.30;99.90;;;;;;4912465;29;20127;-81
2021/09/01 11:02:18;;;;;;;2.63;0.80;;;18.40;99.90;;;;;;4912581;29;20111;-82
2021/09/01 11:04:48;;;;;;;5.80;0.70;;;18.30;99.90;;;;;;4912698;29;20062;-81
2021/09/01 11:07:30;;;;;;;5.10;0.93;;;18.30;99.90;;;;;;4896764;29;20043;-82
2021/09/01 11:09:59;;;;;;;4.13;0.70;;;18.60;99.90;;;;;;4912243;29;20036;-81
2021/09/01 11:12:27;;;;;;;4.88;0.60;;;18.90;99.90;;;;;;4896814;29;20028;-82
2021/09/01 11:14:54;;;;;;;5.78;0.60;;;19.00;99.90;;;;;;4928348;29;20100;-81
2021/09/01 11:17:22;;;;;;;4.93;0.68;;;18.80;99.90;;;;;;4896599;29;20096;-82
2021/09/01 11:19:59;;;;;;;4.57;1.13;;;19.10;99.90;;;;;;4928018;29;20048;-81
2021/09/01 11:22:29;;;;;;;5.80;0.60;;;18.80;99.90;;;;;;4912549;29;20060;-81
2021/09/01 11:25:01;;;;;;;3.03;0.52;;;18.80;99.90;;;;;;4928392;29;20508;-81
2021/09/01 11:27:28;;;;;;;3.15;0.50;;;18.70;99.90;;;;;;4929506;29;20047;-82
2021/09/01 11:30:04;;;;;;;2.47;0.40;;;18.70;99.90;;;;;;4948101;29;20107;-81
2021/09/01 11:32:31;;;;;;;4.32;0.77;;;18.70;99.90;;;;;;4948108;29;20074;-82
2021/09/01 11:35:01;;;;;;;3.13;0.50;;;18.90;99.90;;;;;;4948352;29;20040;-82
2021/09/01 11:37:27;;;;;;;3.13;0.70;;;19.10;99.90;;;;;;4932285;29;20094;-82
2021/09/01 11:39:53;;;;;;;3.65;0.50;;;19.00;99.90;;;;;;4932152;29;20449;-82
2021/09/01 11:42:19;;;;;;;3.08;0.50;;;19.10;99.90;;;;;;4947790;29;20032;-82
2021/09/01 11:44:55;;;;;;;3.40;0.50;;;19.50;99.90;;;;;;4932118;29;20047;-82
2021/09/01 11:47:21;;;;;;;4.90;0.50;;;19.70;99.90;;;;;;4947612;29;20039;-82
2021/09/01 11:49:50;;;;;;;4.00;1.00;;;19.70;99.90;;;;;;4963953;29;20102;-82
2021/09/01 11:52:24;;;;;;;2.13;0.50;;;19.80;99.90;;;;;;4966795;29;20031;-81
2021/09/01 11:54:52;;;;;;;2.15;0.43;;;19.60;99.90;;;;;;4966775;29;20067;-82
2021/09/01 11:57:28;;;;;;;4.03;0.60;;;19.40;99.90;;;;;;4966606;29;20045;-82
2021/09/01 11:59:57;;;;;;;2.95;0.50;;;19.00;99.90;;;;;;4968004;28;20039;-82
2021/09/01 12:02:26;;;;;;;3.80;0.45;;;19.20;99.90;;;;;;4967865;28;20088;-81
2021/09/01 12:04:51;;;;;;;2.47;0.50;;;19.30;99.90;;;;;;4966401;29;20090;-82
2021/09/01 12:07:25;;;;;;;4.18;0.60;;;19.40;99.90;;;;;;4966444;29;20384;-82
2021/09/01 12:09:59;;;;;;;5.20;0.60;;;19.20;99.90;;;;;;4966422;29;20054;-82
2021/09/01 12:12:34;;;;;;;3.13;0.60;;;19.00;99.90;;;;;;4966210;29;20055;-83
2021/09/01 12:15:14;;;;;;;2.45;0.50;;;19.10;99.90;;;;;;4966452;29;20058;-82
2021/09/01 12:17:41;;;;;;;4.32;1.40;;;19.30;99.90;;;;;;4966125;29;20035;-82
2021/09/01 12:20:11;;;;;;;3.95;1.00;;;19.20;99.90;;;;;;4966108;28;20037;-82
2021/09/01 12:22:41;;;;;;;4.55;0.80;;;18.90;99.90;;;;;;4967488;29;20027;-82
2021/09/01 12:25:13;;;;;;;9.00;1.10;;;18.70;99.90;;;;;;4966206;29;20051;-82
2021/09/01 12:27:40;;;;;;;3.17;0.50;;;18.60;99.90;;;;;;4949998;29;20039;-82
2021/09/01 12:30:10;;;;;;;5.03;0.80;;;18.80;99.90;;;;;;4966313;29;20039;-82
2021/09/01 12:32:36;;;;;;;3.90;0.60;;;18.70;99.90;;;;;;4967247;29;20037;-82
2021/09/01 12:35:06;;;;;;;4.72;0.60;;;18.80;99.90;;;;;;4967363;29;20051;-82
2021/09/01 12:37:34;;;;;;;;;;;18.70;99.90;;;;;;4966412;28;20103;-81
2021/09/01 12:40:06;;;;;;;5.25;1.13;;;18.80;99.90;;;;;;4949914;29;20039;-82
2021/09/01 12:42:39;;;;;;;3.40;0.85;;;18.60;99.90;;;;;;4949772;29;20042;-82
2021/09/01 12:45:08;;;;;;;8.32;1.00;;;18.60;99.90;;;;;;4965977;29;20039;-82
2021/09/01 12:47:35;;;;;;;2.42;0.70;;;18.50;99.90;;;;;;4965937;29;20403;-82
2021/09/01 12:50:03;;;;;;;4.13;0.70;;;18.60;99.90;;;;;;4949978;29;20130;-82
2021/09/01 12:52:30;;;;;;;2.97;0.60;;;19.10;99.90;;;;;;4981744;28;20487;-82
2021/09/01 12:54:58;;;;;;;2.67;0.60;;;19.50;99.90;;;;;;4965844;29;20035;-82